sensor_id;sensor_type;location;lat;lon;timestamp;temperature;humidity
9209;DHT22;4639;48.862;9.188;2024-01-15T00:01:27;-1.10;99.90
9209;DHT22;4639;48.862;9.188;2024-01-15T00:03:52;-1.20;99.90
9209;DHT22;4639;48.862;9.188;2024-01-15T00:06:18;-1.20;99.90
9209;DHT22;4639;48.862;9.188;2024-01-15T00:08:43;-1.30;99.90
9209;DHT22;4639;48.862;9.188;2024-01-15T00:11:09;-1.30;99.90
9209;DHT22;4639;48.862;9.188;2024-01-15T00:13:35;-1.30;99.90
9209;DHT22;4639;48.862;9.188;2024-01-15T00:16:00;-1.20;99.90
9209;DHT22;4639;48.862;9.188;2024-01-15T00:18:26;-1.20;99.90
9209;DHT22;4639;48.862;9.188;2024-01-15T00:20:51;-1.30;99.90
9209;DHT22;4639;48.862;9.188;2024-01-15T00:23:17;-1.40;99.90
9209;DHT22;4639;48.862;9.188;2024-01-15T00:25:42;-1.40;99.90
9209;DHT22;4639;48.862;9.188;2024-01-15T00:28:08;-1.40;99.90
9209;DHT22;4639;48.862;9.188;2024-01-15T00:30:34;-1.50;99.90
9209;DHT22;4639;48.862;9.188;2024-01-15T00:32:59;-1.60;99.90
9209;DHT22;4639;48.862;9.188;2024-01-15T00:35:25;-1.50;99.90
9209;DHT22;4639;48.862;9.188;2024-01-15T00:37:50;-1.50;99.90
9209;DHT22;4639;48.862;9.188;2024-01-15T00:40:16;-1.40;99.90
9209;DHT22;4639;48.862;9.188;2024-01-15T00:42:41;-1.40;99.90
9209;DHT22;4639;48.862;9.188;2024-01-15T00:45:07;-1.40;99.90
9209;DHT22;4639;48.862;9.188;2024-01-15T00:47:34;-1.30;99.90
9209;DHT22;4639;48.862;9.188;2024-01-15T00:50:00;-1.30;99.90
9209;DHT22;4639;48.862;9.188;2024-01-15T00:52:26;-1.00;99.90
9209;DHT22;4639;48.862;9.188;2024-01-15T00:54:51;-1.20;99.90
9209;DHT22;4639;48.862;9.188;2024-01-15T00:57:17;-1.20;99.90
9209;DHT22;4639;48.862;9.188;2024-01-15T00:59:44;-1.30;99.90
9209;DHT22;4639;48.862;9.188;2024-01-15T01:02:10;-1.20;99.90
9209;DHT22;4639;48.862;9.188;2024-01-15T01:04:35;-1.40;99.90
9209;DHT22;4639;48.862;9.188;2024-01-15T01:07:01;-1.40;99.90
9209;DHT22;4639;48.862;9.188;2024-01-15T01:09:27;-1.30;99.90
9209;DHT22;4639;48.862;9.188;2024-01-15T01:11:55;-1.20;99.90
9209;DHT22;4639;48.862;9.188;2024-01-15T01:14:21;-1.10;99.90
9209;DHT22;4639;48.862;9.188;2024-01-15T01:16:47;-1.10;99.90
9209;DHT22;4639;48.862;9.188;2024-01-15T01:19:12;-1.10;99.90
9209;DHT22;4639;48.862;9.188;2024-01-15T01:21:38;-1.00;99.90
9209;DHT22;4639;48.862;9.188;2024-01-15T01:24:04;-1.00;99.90
9209;DHT22;4639;48.862;9.188;2024-01-15T01:26:30;-0.90;99.90
9209;DHT22;4639;48.862;9.188;2024-01-15T01:28:56;-0.90;99.90
9209;DHT22;4639;48.862;9.188;2024-01-15T01:31:21;-0.90;99.90
9209;DHT22;4639;48.862;9.188;2024-01-15T01:33:47;-0.90;99.90
9209;DHT22;4639;48.862;9.188;2024-01-15T01:36:12;-0.90;99.90
9209;DHT22;4639;48.862;9.188;2024-01-15T01:38:39;-0.90;99.90
9209;DHT22;4639;48.862;9.188;2024-01-15T01:41:05;-0.80;99.90
9209;DHT22;4639;48.862;9.188;2024-01-15T01:43:30;-0.80;99.90
9209;DHT22;4639;48.862;9.188;2024-01-15T01:45:57;-0.70;99.90
9209;DHT22;4639;48.862;9.188;2024-01-15T01:48:24;-0.70;99.90
9209;DHT22;4639;48.862;9.188;2024-01-15T01:50:54;-0.70;99.90
9209;DHT22;4639;48.862;9.188;2024-01-15T01:53:22;-0.60;99.90
9209;DHT22;4639;48.862;9.188;2024-01-15T01:55:48;-0.60;99.90
9209;DHT22;4639;48.862;9.188;2024-01-15T01:58:15;-0.60;99.90
9209;DHT22;4639;48.862;9.188;2024-01-15T02:00:41;-0.50;99.90
9209;DHT22;4639;48.862;9.188;2024-01-15T02:03:07;-0.50;99.90
9209;DHT22;4639;48.862;9.188;2024-01-15T02:05:34;-0.40;99.90
9209;DHT22;4639;48.862;9.188;2024-01-15T02:08:00;-0.30;99.90
9209;DHT22;4639;48.862;9.188;2024-01-15T02:10:26;-0.40;99.90
9209;DHT22;4639;48.862;9.188;2024-01-15T02:12:51;-0.30;99.90
9209;DHT22;4639;48.862;9.188;2024-01-15T02:15:17;-0.40;99.90
9209;DHT22;4639;48.862;9.188;2024-01-15T02:17:59;-0.30;99.90
9209;DHT22;4639;48.862;9.188;2024-01-15T02:20:25;-0.30;99.90
9209;DHT22;4639;48.862;9.188;2024-01-15T02:22:51;-0.30;99.90
9209;DHT22;4639;48.862;9.188;2024-01-15T02:25:17;-0.30;99.90
9209;DHT22;4639;48.862;9.188;2024-01-15T02:27:44;-0.20;99.90
9209;DHT22;4639;48.862;9.188;2024-01-15T02:30:11;-0.20;99.90
9209;DHT22;4639;48.862;9.188;2024-01-15T02:32:38;-0.30;99.90
9209;DHT22;4639;48.862;9.188;2024-01-15T02:35:04;-0.20;99.90
9209;DHT22;4639;48.862;9.188;2024-01-15T02:37:30;-0.10;99.90
9209;DHT22;4639;48.862;9.188;2024-01-15T02:39:55;-0.10;99.90
9209;DHT22;4639;48.862;9.188;2024-01-15T02:42:21;-0.10;99.90
9209;DHT22;4639;48.862;9.188;2024-01-15T02:44:46;-0.10;99.90
9209;DHT22;4639;48.862;9.188;2024-01-15T02:47:14;-0.20;99.90
9209;DHT22;4639;48.862;9.188;2024-01-15T02:49:39;-0.20;99.90
9209;DHT22;4639;48.862;9.188;2024-01-15T02:52:05;-0.30;99.90
9209;DHT22;4639;48.862;9.188;2024-01-15T02:54:31;-0.30;99.90
9209;DHT22;4639;48.862;9.188;2024-01-15T02:56:56;-0.30;99.90
9209;DHT22;4639;48.862;9.188;2024-01-15T02:59:22;-0.40;99.90
9209;DHT22;4639;48.862;9.188;2024-01-15T03:01:47;-0.40;99.90
9209;DHT22;4639;48.862;9.188;2024-01-15T03:04:13;-0.40;99.90
9209;DHT22;4639;48.862;9.188;2024-01-15T03:06:38;-0.40;99.90
9209;DHT22;4639;48.862;9.188;2024-01-15T03:09:04;-0.10;99.90
9209;DHT22;4639;48.862;9.188;2024-01-15T03:11:37;-0.30;99.90
9209;DHT22;4639;48.862;9.188;2024-01-15T03:14:03;-0.30;99.90
9209;DHT22;4639;48.862;9.188;2024-01-15T03:16:28;-0.20;99.90
9209;DHT22;4639;48.862;9.188;2024-01-15T03:18:54;-0.20;99.90
9209;DHT22;4639;48.862;9.188;2024-01-15T03:21:20;-0.20;99.90
9209;DHT22;4639;48.862;9.188;2024-01-15T03:23:45;-0.20;99.90
9209;DHT22;4639;48.862;9.188;2024-01-15T03:26:11;-0.20;99.90
9209;DHT22;4639;48.862;9.188;2024-01-15T03:28:36;-0.20;99.90
9209;DHT22;4639;48.862;9.188;2024-01-15T03:31:02;-0.30;99.90
9209;DHT22;4639;48.862;9.188;2024-01-15T03:33:27;-0.20;99.90
9209;DHT22;4639;48.862;9.188;2024-01-15T03:35:53;-0.10;99.90
9209;DHT22;4639;48.862;9.188;2024-01-15T03:38:19;-0.20;99.90
9209;DHT22;4639;48.862;9.188;2024-01-15T03:40:44;-0.10;99.90
9209;DHT22;4639;48.862;9.188;2024-01-15T03:43:10;-0.10;99.90
9209;DHT22;4639;48.862;9.188;2024-01-15T03:45:35;-0.10;99.90
9209;DHT22;4639;48.862;9.188;2024-01-15T03:48:01;-0.10;99.90
9209;DHT22;4639;48.862;9.188;2024-01-15T03:50:27;0.00;99.90
9209;DHT22;4639;48.862;9.188;2024-01-15T03:52:52;-0.20;99.90
9209;DHT22;4639;48.862;9.188;2024-01-15T03:55:18;-0.20;99.90
9209;DHT22;4639;48.862;9.188;2024-01-15T03:57:43;-0.20;99.90
9209;DHT22;4639;48.862;9.188;2024-01-15T04:00:09;-0.10;99.90
9209;DHT22;4639;48.862;9.188;2024-01-15T04:02:35;-0.10;99.90
9209;DHT22;4639;48.862;9.188;2024-01-15T04:05:00;0.00;99.90
9209;DHT22;4639;48.862;9.188;2024-01-15T04:07:26;0.00;99.90
9209;DHT22;4639;48.862;9.188;2024-01-15T04:09:52;0.10;99.90
9209;DHT22;4639;48.862;9.188;2024-01-15T04:12:17;0.10;99.90
9209;DHT22;4639;48.862;9.188;2024-01-15T04:14:43;0.20;99.90
9209;DHT22;4639;48.862;9.188;2024-01-15T04:17:08;0.10;99.90
9209;DHT22;4639;48.862;9.188;2024-01-15T04:19:34;0.20;99.90
9209;DHT22;4639;48.862;9.188;2024-01-15T04:21:59;0.30;99.90
9209;DHT22;4639;48.862;9.188;2024-01-15T04:24:25;0.30;99.90
9209;DHT22;4639;48.862;9.188;2024-01-15T04:26:51;0.40;99.90
9209;DHT22;4639;48.862;9.188;2024-01-15T04:29:16;0.30;99.90
9209;DHT22;4639;48.862;9.188;2024-01-15T04:31:42;0.40;99.90
9209;DHT22;4639;48.862;9.188;2024-01-15T04:34:07;0.30;99.90
9209;DHT22;4639;48.862;9.188;2024-01-15T04:36:39;0.30;99.90
9209;DHT22;4639;48.862;9.188;2024-01-15T04:39:04;0.40;99.90
9209;DHT22;4639;48.862;9.188;2024-01-15T04:41:30;0.40;99.90
9209;DHT22;4639;48.862;9.188;2024-01-15T04:43:55;0.50;99.90
9209;DHT22;4639;48.862;9.188;2024-01-15T04:46:21;0.50;99.90
9209;DHT22;4639;48.862;9.188;2024-01-15T04:48:47;0.50;99.90
9209;DHT22;4639;48.862;9.188;2024-01-15T04:51:12;0.60;99.90
9209;DHT22;4639;48.862;9.188;2024-01-15T04:53:38;0.60;99.90
9209;DHT22;4639;48.862;9.188;2024-01-15T04:56:03;0.60;99.90
9209;DHT22;4639;48.862;9.188;2024-01-15T04:58:29;0.60;99.90
9209;DHT22;4639;48.862;9.188;2024-01-15T05:00:55;0.60;99.90
9209;DHT22;4639;48.862;9.188;2024-01-15T05:03:20;0.60;99.90
9209;DHT22;4639;48.862;9.188;2024-01-15T05:05:47;0.60;99.90
9209;DHT22;4639;48.862;9.188;2024-01-15T05:08:13;0.70;99.90
9209;DHT22;4639;48.862;9.188;2024-01-15T05:10:38;0.70;99.90
9209;DHT22;4639;48.862;9.188;2024-01-15T05:13:04;0.70;99.90
9209;DHT22;4639;48.862;9.188;2024-01-15T05:15:29;0.70;99.90
9209;DHT22;4639;48.862;9.188;2024-01-15T05:17:55;0.60;99.90
9209;DHT22;4639;48.862;9.188;2024-01-15T05:20:21;0.60;99.90
9209;DHT22;4639;48.862;9.188;2024-01-15T05:22:47;0.70;99.90
9209;DHT22;4639;48.862;9.188;2024-01-15T05:25:12;0.70;99.90
9209;DHT22;4639;48.862;9.188;2024-01-15T05:27:38;0.80;99.90
9209;DHT22;4639;48.862;9.188;2024-01-15T05:30:04;0.70;99.90
9209;DHT22;4639;48.862;9.188;2024-01-15T05:32:29;0.80;99.90
9209;DHT22;4639;48.862;9.188;2024-01-15T05:34:55;0.80;99.90
9209;DHT22;4639;48.862;9.188;2024-01-15T05:37:21;0.80;99.90
9209;DHT22;4639;48.862;9.188;2024-01-15T05:39:46;1.00;99.90
9209;DHT22;4639;48.862;9.188;2024-01-15T05:42:12;0.80;99.90
9209;DHT22;4639;48.862;9.188;2024-01-15T05:44:37;0.80;99.90
9209;DHT22;4639;48.862;9.188;2024-01-15T05:47:03;0.80;99.90
9209;DHT22;4639;48.862;9.188;2024-01-15T05:49:29;0.80;99.90
9209;DHT22;4639;48.862;9.188;2024-01-15T05:51:55;0.80;99.90
9209;DHT22;4639;48.862;9.188;2024-01-15T05:54:20;0.90;99.90
9209;DHT22;4639;48.862;9.188;2024-01-15T05:56:48;0.90;99.90
9209;DHT22;4639;48.862;9.188;2024-01-15T05:59:14;0.80;99.90
9209;DHT22;4639;48.862;9.188;2024-01-15T06:01:40;0.90;99.90
9209;DHT22;4639;48.862;9.188;2024-01-15T06:04:05;0.90;99.90
9209;DHT22;4639;48.862;9.188;2024-01-15T06:06:32;1.00;99.90
9209;DHT22;4639;48.862;9.188;2024-01-15T06:08:57;0.90;99.90
9209;DHT22;4639;48.862;9.188;2024-01-15T06:11:30;0.90;99.90
9209;DHT22;4639;48.862;9.188;2024-01-15T06:13:55;0.90;99.90
9209;DHT22;4639;48.862;9.188;2024-01-15T06:16:21;0.90;99.90
9209;DHT22;4639;48.862;9.188;2024-01-15T06:18:47;0.90;99.90
9209;DHT22;4639;48.862;9.188;2024-01-15T06:21:13;0.90;99.90
9209;DHT22;4639;48.862;9.188;2024-01-15T06:23:39;1.00;99.90
9209;DHT22;4639;48.862;9.188;2024-01-15T06:26:05;1.00;99.90
9209;DHT22;4639;48.862;9.188;2024-01-15T06:28:31;1.00;99.90
9209;DHT22;4639;48.862;9.188;2024-01-15T06:30:57;1.00;99.90
9209;DHT22;4639;48.862;9.188;2024-01-15T06:33:23;1.00;99.90
9209;DHT22;4639;48.862;9.188;2024-01-15T06:35:49;1.00;99.90
9209;DHT22;4639;48.862;9.188;2024-01-15T06:38:15;1.10;99.90
9209;DHT22;4639;48.862;9.188;2024-01-15T06:40:41;1.00;99.90
9209;DHT22;4639;48.862;9.188;2024-01-15T06:43:11;1.00;99.90
9209;DHT22;4639;48.862;9.188;2024-01-15T06:45:36;1.10;99.90
9209;DHT22;4639;48.862;9.188;2024-01-15T06:48:02;1.10;99.90
9209;DHT22;4639;48.862;9.188;2024-01-15T06:50:28;1.10;99.90
9209;DHT22;4639;48.862;9.188;2024-01-15T06:52:53;1.00;99.90
9209;DHT22;4639;48.862;9.188;2024-01-15T06:55:19;1.00;99.90
9209;DHT22;4639;48.862;9.188;2024-01-15T06:57:45;0.90;99.90
9209;DHT22;4639;48.862;9.188;2024-01-15T07:00:10;0.90;99.90
9209;DHT22;4639;48.862;9.188;2024-01-15T07:02:36;1.00;99.90
9209;DHT22;4639;48.862;9.188;2024-01-15T07:05:02;1.00;99.90
9209;DHT22;4639;48.862;9.188;2024-01-15T07:07:30;1.00;99.90
9209;DHT22;4639;48.862;9.188;2024-01-15T07:09:56;1.00;99.90
9209;DHT22;4639;48.862;9.188;2024-01-15T07:12:22;1.00;99.90
9209;DHT22;4639;48.862;9.188;2024-01-15T07:14:47;0.90;99.90
9209;DHT22;4639;48.862;9.188;2024-01-15T07:17:13;1.00;99.90
9209;DHT22;4639;48.862;9.188;2024-01-15T07:19:39;1.00;99.90
9209;DHT22;4639;48.862;9.188;2024-01-15T07:22:04;1.00;99.90
9209;DHT22;4639;48.862;9.188;2024-01-15T07:24:30;1.00;99.90
9209;DHT22;4639;48.862;9.188;2024-01-15T07:26:55;1.00;99.90
9209;DHT22;4639;48.862;9.188;2024-01-15T07:29:21;1.00;99.90
9209;DHT22;4639;48.862;9.188;2024-01-15T07:31:50;1.00;99.90
9209;DHT22;4639;48.862;9.188;2024-01-15T07:34:16;1.00;99.90
9209;DHT22;4639;48.862;9.188;2024-01-15T07:36:43;1.00;99.90
9209;DHT22;4639;48.862;9.188;2024-01-15T07:39:09;1.00;99.90
9209;DHT22;4639;48.862;9.188;2024-01-15T07:41:35;1.00;99.90
9209;DHT22;4639;48.862;9.188;2024-01-15T07:44:00;1.00;99.90
9209;DHT22;4639;48.862;9.188;2024-01-15T07:46:26;1.00;99.90
9209;DHT22;4639;48.862;9.188;2024-01-15T07:48:52;1.10;99.90
9209;DHT22;4639;48.862;9.188;2024-01-15T07:51:26;1.10;99.90
9209;DHT22;4639;48.862;9.188;2024-01-15T07:53:54;1.10;99.90
9209;DHT22;4639;48.862;9.188;2024-01-15T07:56:22;1.20;99.90
9209;DHT22;4639;48.862;9.188;2024-01-15T07:58:48;1.20;99.90
9209;DHT22;4639;48.862;9.188;2024-01-15T08:01:13;1.20;99.90
9209;DHT22;4639;48.862;9.188;2024-01-15T08:03:39;1.30;99.90
9209;DHT22;4639;48.862;9.188;2024-01-15T08:06:05;1.20;99.90
9209;DHT22;4639;48.862;9.188;2024-01-15T08:08:31;1.20;99.90
9209;DHT22;4639;48.862;9.188;2024-01-15T08:10:56;1.30;99.90
9209;DHT22;4639;48.862;9.188;2024-01-15T08:13:22;1.30;99.90
9209;DHT22;4639;48.862;9.188;2024-01-15T08:15:48;1.30;99.90
9209;DHT22;4639;48.862;9.188;2024-01-15T08:18:13;1.30;99.90
9209;DHT22;4639;48.862;9.188;2024-01-15T08:20:39;1.10;99.90
9209;DHT22;4639;48.862;9.188;2024-01-15T08:23:05;1.20;99.90
9209;DHT22;4639;48.862;9.188;2024-01-15T08:25:30;1.20;99.90
9209;DHT22;4639;48.862;9.188;2024-01-15T08:27:56;1.30;99.90
9209;DHT22;4639;48.862;9.188;2024-01-15T08:30:23;1.30;99.90
9209;DHT22;4639;48.862;9.188;2024-01-15T08:32:55;1.30;99.90
9209;DHT22;4639;48.862;9.188;2024-01-15T08:35:21;1.20;99.90
9209;DHT22;4639;48.862;9.188;2024-01-15T08:37:54;1.30;99.90
9209;DHT22;4639;48.862;9.188;2024-01-15T08:40:20;1.40;99.90
9209;DHT22;4639;48.862;9.188;2024-01-15T08:42:46;1.40;99.90
9209;DHT22;4639;48.862;9.188;2024-01-15T08:45:12;1.50;99.90
9209;DHT22;4639;48.862;9.188;2024-01-15T08:47:38;1.50;99.90
9209;DHT22;4639;48.862;9.188;2024-01-15T08:50:04;1.50;99.90
9209;DHT22;4639;48.862;9.188;2024-01-15T08:52:30;1.50;99.90
9209;DHT22;4639;48.862;9.188;2024-01-15T08:54:57;1.60;99.90
9209;DHT22;4639;48.862;9.188;2024-01-15T08:57:22;1.60;99.90
9209;DHT22;4639;48.862;9.188;2024-01-15T08:59:48;1.60;99.90
9209;DHT22;4639;48.862;9.188;2024-01-15T09:02:14;1.60;99.90
9209;DHT22;4639;48.862;9.188;2024-01-15T09:04:40;1.60;99.90
9209;DHT22;4639;48.862;9.188;2024-01-15T09:07:07;1.60;99.90
9209;DHT22;4639;48.862;9.188;2024-01-15T09:09:33;1.60;99.90
9209;DHT22;4639;48.862;9.188;2024-01-15T09:11:59;1.60;99.90
9209;DHT22;4639;48.862;9.188;2024-01-15T09:14:25;1.70;99.90
9209;DHT22;4639;48.862;9.188;2024-01-15T09:16:52;1.70;99.90
9209;DHT22;4639;48.862;9.188;2024-01-15T09:19:18;1.70;99.90
9209;DHT22;4639;48.862;9.188;2024-01-15T09:21:44;1.70;99.90
9209;DHT22;4639;48.862;9.188;2024-01-15T09:24:10;1.70;99.90
9209;DHT22;4639;48.862;9.188;2024-01-15T09:26:35;1.60;99.90
9209;DHT22;4639;48.862;9.188;2024-01-15T09:29:01;1.60;99.90
9209;DHT22;4639;48.862;9.188;2024-01-15T09:31:28;1.60;99.90
9209;DHT22;4639;48.862;9.188;2024-01-15T09:33:53;1.70;99.90
9209;DHT22;4639;48.862;9.188;2024-01-15T09:36:22;1.70;99.90
9209;DHT22;4639;48.862;9.188;2024-01-15T09:38:48;1.90;99.90
9209;DHT22;4639;48.862;9.188;2024-01-15T09:41:14;1.80;99.90
9209;DHT22;4639;48.862;9.188;2024-01-15T09:43:40;1.80;99.90
9209;DHT22;4639;48.862;9.188;2024-01-15T09:46:06;1.80;99.90
9209;DHT22;4639;48.862;9.188;2024-01-15T09:48:31;1.80;99.90
9209;DHT22;4639;48.862;9.188;2024-01-15T09:51:03;1.80;99.90
9209;DHT22;4639;48.862;9.188;2024-01-15T09:53:30;1.90;99.90
9209;DHT22;4639;48.862;9.188;2024-01-15T09:55:56;2.00;99.90
9209;DHT22;4639;48.862;9.188;2024-01-15T09:58:22;1.80;99.90
9209;DHT22;4639;48.862;9.188;2024-01-15T10:00:48;1.70;99.90
9209;DHT22;4639;48.862;9.188;2024-01-15T10:03:15;1.80;99.90
9209;DHT22;4639;48.862;9.188;2024-01-15T10:05:41;1.90;99.90
9209;DHT22;4639;48.862;9.188;2024-01-15T10:08:07;1.90;99.90
9209;DHT22;4639;48.862;9.188;2024-01-15T10:10:33;1.90;99.90
9209;DHT22;4639;48.862;9.188;2024-01-15T10:13:01;1.90;99.90
9209;DHT22;4639;48.862;9.188;2024-01-15T10:15:27;1.90;99.90
9209;DHT22;4639;48.862;9.188;2024-01-15T10:17:52;2.10;99.90
9209;DHT22;4639;48.862;9.188;2024-01-15T10:20:18;2.20;99.90
9209;DHT22;4639;48.862;9.188;2024-01-15T10:22:44;2.10;99.90
9209;DHT22;4639;48.862;9.188;2024-01-15T10:25:14;2.10;99.90
9209;DHT22;4639;48.862;9.188;2024-01-15T10:27:43;2.10;99.90
9209;DHT22;4639;48.862;9.188;2024-01-15T10:30:09;2.10;99.90
9209;DHT22;4639;48.862;9.188;2024-01-15T10:32:35;2.10;99.90
9209;DHT22;4639;48.862;9.188;2024-01-15T10:35:01;2.00;99.90
9209;DHT22;4639;48.862;9.188;2024-01-15T10:37:26;2.10;99.90
9209;DHT22;4639;48.862;9.188;2024-01-15T10:39:52;2.00;99.90
9209;DHT22;4639;48.862;9.188;2024-01-15T10:42:18;2.00;99.90
9209;DHT22;4639;48.862;9.188;2024-01-15T10:44:44;2.10;99.90
9209;DHT22;4639;48.862;9.188;2024-01-15T10:47:12;2.10;99.90
9209;DHT22;4639;48.862;9.188;2024-01-15T10:49:38;2.10;99.90
9209;DHT22;4639;48.862;9.188;2024-01-15T10:52:05;2.10;99.90
9209;DHT22;4639;48.862;9.188;2024-01-15T10:54:31;2.00;99.90
9209;DHT22;4639;48.862;9.188;2024-01-15T10:56:57;2.10;99.90
9209;DHT22;4639;48.862;9.188;2024-01-15T10:59:23;2.10;99.90
9209;DHT22;4639;48.862;9.188;2024-01-15T11:01:50;2.00;99.90
9209;DHT22;4639;48.862;9.188;2024-01-15T11:04:19;2.00;99.90
9209;DHT22;4639;48.862;9.188;2024-01-15T11:06:46;2.00;99.90
9209;DHT22;4639;48.862;9.188;2024-01-15T11:09:12;1.90;99.90
9209;DHT22;4639;48.862;9.188;2024-01-15T11:11:46;1.90;99.90
9209;DHT22;4639;48.862;9.188;2024-01-15T11:14:41;1.80;99.90
9209;DHT22;4639;48.862;9.188;2024-01-15T11:17:10;1.90;99.90
9209;DHT22;4639;48.862;9.188;2024-01-15T11:19:46;1.80;99.90
9209;DHT22;4639;48.862;9.188;2024-01-15T11:24:56;1.60;99.90
9209;DHT22;4639;48.862;9.188;2024-01-15T11:27:46;1.50;99.90
9209;DHT22;4639;48.862;9.188;2024-01-15T11:30:18;1.40;99.90
9209;DHT22;4639;48.862;9.188;2024-01-15T11:32:45;1.40;99.90
9209;DHT22;4639;48.862;9.188;2024-01-15T11:35:12;1.40;99.90
9209;DHT22;4639;48.862;9.188;2024-01-15T11:42:58;1.40;99.90
9209;DHT22;4639;48.862;9.188;2024-01-15T11:45:24;1.40;99.90
9209;DHT22;4639;48.862;9.188;2024-01-15T11:50:44;1.40;99.90
9209;DHT22;4639;48.862;9.188;2024-01-15T11:53:18;1.40;99.90
9209;DHT22;4639;48.862;9.188;2024-01-15T11:55:46;1.40;99.90
9209;DHT22;4639;48.862;9.188;2024-01-15T11:58:14;1.40;99.90
9209;DHT22;4639;48.862;9.188;2024-01-15T12:00:40;1.40;99.90
9209;DHT22;4639;48.862;9.188;2024-01-15T12:03:07;1.40;99.90
9209;DHT22;4639;48.862;9.188;2024-01-15T12:05:37;1.50;99.90
9209;DHT22;4639;48.862;9.188;2024-01-15T12:08:03;1.40;99.90
9209;DHT22;4639;48.862;9.188;2024-01-15T12:10:28;1.40;99.90
9209;DHT22;4639;48.862;9.188;2024-01-15T12:13:09;1.30;99.90
9209;DHT22;4639;48.862;9.188;2024-01-15T12:15:35;1.20;99.90
9209;DHT22;4639;48.862;9.188;2024-01-15T12:18:01;1.20;99.90
9209;DHT22;4639;48.862;9.188;2024-01-15T12:20:31;1.20;99.90
9209;DHT22;4639;48.862;9.188;2024-01-15T12:22:57;1.20;99.90
9209;DHT22;4639;48.862;9.188;2024-01-15T12:25:23;1.20;99.90
9209;DHT22;4639;48.862;9.188;2024-01-15T12:27:50;1.20;99.90
9209;DHT22;4639;48.862;9.188;2024-01-15T12:30:16;1.30;99.90
9209;DHT22;4639;48.862;9.188;2024-01-15T12:32:42;1.20;99.90
9209;DHT22;4639;48.862;9.188;2024-01-15T12:35:12;1.20;99.90
9209;DHT22;4639;48.862;9.188;2024-01-15T12:37:39;1.10;99.90
9209;DHT22;4639;48.862;9.188;2024-01-15T12:40:08;1.10;99.90
9209;DHT22;4639;48.862;9.188;2024-01-15T12:42:44;1.10;99.90
9209;DHT22;4639;48.862;9.188;2024-01-15T12:45:11;1.10;99.90
9209;DHT22;4639;48.862;9.188;2024-01-15T12:47:38;1.10;99.90
9209;DHT22;4639;48.862;9.188;2024-01-15T12:50:11;1.00;99.90
9209;DHT22;4639;48.862;9.188;2024-01-15T12:52:37;1.10;99.90
9209;DHT22;4639;48.862;9.188;2024-01-15T12:55:05;1.10;99.90
9209;DHT22;4639;48.862;9.188;2024-01-15T12:57:31;1.10;99.90
9209;DHT22;4639;48.862;9.188;2024-01-15T12:59:57;1.10;99.90
9209;DHT22;4639;48.862;9.188;2024-01-15T13:02:22;1.00;99.90
9209;DHT22;4639;48.862;9.188;2024-01-15T13:04:48;1.20;99.90
9209;DHT22;4639;48.862;9.188;2024-01-15T13:07:14;1.20;99.90
9209;DHT22;4639;48.862;9.188;2024-01-15T13:09:39;1.20;99.90
9209;DHT22;4639;48.862;9.188;2024-01-15T13:12:05;1.20;99.90
9209;DHT22;4639;48.862;9.188;2024-01-15T13:14:31;1.30;99.90
9209;DHT22;4639;48.862;9.188;2024-01-15T13:16:58;1.10;99.90
9209;DHT22;4639;48.862;9.188;2024-01-15T13:19:24;1.20;99.90
9209;DHT22;4639;48.862;9.188;2024-01-15T13:21:50;1.10;99.90
9209;DHT22;4639;48.862;9.188;2024-01-15T13:24:17;1.10;99.90
9209;DHT22;4639;48.862;9.188;2024-01-15T13:26:42;1.10;99.90
9209;DHT22;4639;48.862;9.188;2024-01-15T13:29:08;1.10;99.90
9209;DHT22;4639;48.862;9.188;2024-01-15T13:31:33;1.20;99.90
9209;DHT22;4639;48.862;9.188;2024-01-15T13:33:59;1.20;99.90
9209;DHT22;4639;48.862;9.188;2024-01-15T13:36:26;1.10;99.90
9209;DHT22;4639;48.862;9.188;2024-01-15T13:38:52;1.10;99.90
9209;DHT22;4639;48.862;9.188;2024-01-15T13:41:22;1.10;99.90
9209;DHT22;4639;48.862;9.188;2024-01-15T13:43:53;1.20;99.90
9209;DHT22;4639;48.862;9.188;2024-01-15T13:46:24;1.20;99.90
9209;DHT22;4639;48.862;9.188;2024-01-15T13:48:50;1.20;99.90
9209;DHT22;4639;48.862;9.188;2024-01-15T13:51:15;1.20;99.90
9209;DHT22;4639;48.862;9.188;2024-01-15T13:53:41;1.20;99.90
9209;DHT22;4639;48.862;9.188;2024-01-15T13:56:07;1.30;99.90
9209;DHT22;4639;48.862;9.188;2024-01-15T13:58:35;1.30;99.90
9209;DHT22;4639;48.862;9.188;2024-01-15T14:01:01;1.40;99.90
9209;DHT22;4639;48.862;9.188;2024-01-15T14:03:29;1.40;99.90
9209;DHT22;4639;48.862;9.188;2024-01-15T14:05:55;1.40;99.90
9209;DHT22;4639;48.862;9.188;2024-01-15T14:08:20;1.30;99.90
9209;DHT22;4639;48.862;9.188;2024-01-15T14:10:46;1.40;99.90
9209;DHT22;4639;48.862;9.188;2024-01-15T14:13:12;1.40;99.90
9209;DHT22;4639;48.862;9.188;2024-01-15T14:15:37;1.40;99.90
9209;DHT22;4639;48.862;9.188;2024-01-15T14:18:03;1.40;99.90
9209;DHT22;4639;48.862;9.188;2024-01-15T14:20:29;1.40;99.90
9209;DHT22;4639;48.862;9.188;2024-01-15T14:22:54;1.40;99.90
9209;DHT22;4639;48.862;9.188;2024-01-15T14:25:20;1.30;99.90
9209;DHT22;4639;48.862;9.188;2024-01-15T14:27:46;1.40;99.90
9209;DHT22;4639;48.862;9.188;2024-01-15T14:30:12;1.30;99.90
9209;DHT22;4639;48.862;9.188;2024-01-15T14:32:39;1.20;99.90
9209;DHT22;4639;48.862;9.188;2024-01-15T14:35:05;1.20;99.90
9209;DHT22;4639;48.862;9.188;2024-01-15T14:37:31;1.10;99.90
9209;DHT22;4639;48.862;9.188;2024-01-15T14:39:56;1.10;99.90
9209;DHT22;4639;48.862;9.188;2024-01-15T14:42:22;1.10;99.90
9209;DHT22;4639;48.862;9.188;2024-01-15T14:44:49;1.10;99.90
9209;DHT22;4639;48.862;9.188;2024-01-15T14:47:15;1.10;99.90
9209;DHT22;4639;48.862;9.188;2024-01-15T14:49:40;1.20;99.90
9209;DHT22;4639;48.862;9.188;2024-01-15T14:52:06;1.20;99.90
9209;DHT22;4639;48.862;9.188;2024-01-15T14:54:32;1.20;99.90
9209;DHT22;4639;48.862;9.188;2024-01-15T14:56:57;1.10;99.90
9209;DHT22;4639;48.862;9.188;2024-01-15T14:59:23;1.10;99.90
9209;DHT22;4639;48.862;9.188;2024-01-15T15:01:48;1.10;99.90
9209;DHT22;4639;48.862;9.188;2024-01-15T15:04:14;1.10;99.90
9209;DHT22;4639;48.862;9.188;2024-01-15T15:06:40;1.00;99.90
9209;DHT22;4639;48.862;9.188;2024-01-15T15:09:05;1.10;99.90
9209;DHT22;4639;48.862;9.188;2024-01-15T15:11:35;1.10;99.90
9209;DHT22;4639;48.862;9.188;2024-01-15T15:14:01;1.10;99.90
9209;DHT22;4639;48.862;9.188;2024-01-15T15:16:27;1.10;99.90
9209;DHT22;4639;48.862;9.188;2024-01-15T15:18:53;1.10;99.90
9209;DHT22;4639;48.862;9.188;2024-01-15T15:21:20;1.10;99.90
9209;DHT22;4639;48.862;9.188;2024-01-15T15:23:45;1.00;99.90
9209;DHT22;4639;48.862;9.188;2024-01-15T15:26:13;1.10;99.90
9209;DHT22;4639;48.862;9.188;2024-01-15T15:28:38;1.10;99.90
9209;DHT22;4639;48.862;9.188;2024-01-15T15:31:05;1.10;99.90
9209;DHT22;4639;48.862;9.188;2024-01-15T15:33:33;1.10;99.90
9209;DHT22;4639;48.862;9.188;2024-01-15T15:35:59;1.10;99.90
9209;DHT22;4639;48.862;9.188;2024-01-15T15:38:33;1.10;99.90
9209;DHT22;4639;48.862;9.188;2024-01-15T15:41:00;1.10;99.90
9209;DHT22;4639;48.862;9.188;2024-01-15T15:43:26;1.00;99.90
9209;DHT22;4639;48.862;9.188;2024-01-15T15:45:52;1.00;99.90
9209;DHT22;4639;48.862;9.188;2024-01-15T15:48:17;1.00;99.90
9209;DHT22;4639;48.862;9.188;2024-01-15T15:50:43;1.00;99.90
9209;DHT22;4639;48.862;9.188;2024-01-15T15:53:09;1.00;99.90
9209;DHT22;4639;48.862;9.188;2024-01-15T15:55:35;1.00;99.90
9209;DHT22;4639;48.862;9.188;2024-01-15T15:58:02;1.10;99.90
9209;DHT22;4639;48.862;9.188;2024-01-15T16:00:29;1.10;99.90
9209;DHT22;4639;48.862;9.188;2024-01-15T16:02:55;1.10;99.90
9209;DHT22;4639;48.862;9.188;2024-01-15T16:05:20;1.00;99.90
9209;DHT22;4639;48.862;9.188;2024-01-15T16:07:46;0.90;99.90
9209;DHT22;4639;48.862;9.188;2024-01-15T16:10:12;0.90;99.90
9209;DHT22;4639;48.862;9.188;2024-01-15T16:12:41;0.90;99.90
9209;DHT22;4639;48.862;9.188;2024-01-15T16:15:20;0.80;99.90
9209;DHT22;4639;48.862;9.188;2024-01-15T16:17:47;0.80;99.90
9209;DHT22;4639;48.862;9.188;2024-01-15T16:20:13;0.80;99.90